Maersk Wakamatsu — 3EZG — position and weather

sailwx.info

Track history (hours):
 
Tides and Currents Weather Stations Pressure Air Temp Water Temp Dewpoint Dewpoint Depression Visibility Wind Speed Wind Dir Waves Ship Positions

Maersk Wakamatsu

Last reported at 2016-Jul-20 11:31 UTC. Time now 2016-Jul-25 02:29 UTC.
Position N 10°58' W 062°09'.

Length 172 m; draft 6.1 m.

Type: Cargo ship. MMSI: 370484000.

Date/timePositionNaut miles runAvg speedWind from/ knotsBaromVisibWave heightAir tempDewpointWater temp
2016-Jul-20 11:31N 10°58' W 062°09'1111.7
2016-Jul-20 10:33N 10°52' W 061°59'1211.7
2016-Jul-20 09:33N 10°45' W 061°49'1010.4
2016-Jul-20 08:34N 10°35' W 061°45'1110.9
2016-Jul-20 07:33N 10°28' W 061°37'8 8.0
2016-Jul-20 06:34N 10°24' W 061°30'0 0.3
2016-Jul-20 05:31N 10°24' W 061°30'0 0.0
2016-Jul-20 04:31N 10°24' W 061°30'0 0.0
2016-Jul-20 03:31N 10°24' W 061°30'0 0.0
2016-Jul-20 02:31N 10°24' W 061°30'0 0.0
2016-Jul-20 01:31N 10°24' W 061°30'0 0.0
2016-Jul-20 00:31N 10°24' W 061°30'0 0.0
2016-Jul-19 23:31N 10°24' W 061°30'0 0.0
2016-Jul-19 22:31N 10°24' W 061°30'0 0.0
2016-Jul-19 21:28N 10°24' W 061°30'0 0.0
2016-Jul-19 20:31N 10°24' W 061°30'0 0.0
2016-Jul-19 19:31N 10°24' W 061°30'0 0.0
2016-Jul-19 18:31N 10°24' W 061°30'3 3.0
2016-Jul-19 17:33N 10°23' W 061°32'9 9.3
2016-Jul-19 16:33N 10°28' W 061°40'5 4.7
2016-Jul-19 15:33N 10°31' W 061°44'0 0.1
2016-Jul-19 14:33N 10°31' W 061°44'0 0.1
2016-Jul-19 13:33N 10°31' W 061°44'0 0.0
2016-Jul-19 12:33N 10°31' W 061°44'0 0.0
2016-Jul-19 11:33N 10°31' W 061°44'0 0.0
2016-Jul-19 10:33N 10°31' W 061°44'0 0.1
2016-Jul-19 09:33N 10°31' W 061°44'0 0.0
2016-Jul-19 08:33N 10°31' W 061°44'0 0.1
2016-Jul-19 07:33N 10°31' W 061°44'10 3.4
2016-Jul-19 04:33N 10°40' W 061°48'9 9.3
2016-Jul-19 03:33N 10°47' W 061°42'1311.0
2016-Jul-19 02:23N 10°53' W 061°30'1010.8
2016-Jul-19 01:27N 10°56' W 061°21'  
2016-Jul-12 23:28N 10°56' W 061°18'1010.2
2016-Jul-12 22:27N 10°54' W 061°29'910.1
2016-Jul-12 21:33N 10°50' W 061°37'1110.8
2016-Jul-12 20:33N 10°43' W 061°46'9 9.4
2016-Jul-12 19:34N 10°35' W 061°43'1211.6
2016-Jul-12 18:34N 10°26' W 061°35'6 5.4
2016-Jul-12 17:31N 10°24' W 061°30'0 0.0
2016-Jul-12 16:31N 10°24' W 061°30'0 0.0
2016-Jul-12 15:31N 10°24' W 061°30'0 0.0
2016-Jul-12 14:31N 10°24' W 061°30'0 0.0
2016-Jul-12 13:25N 10°24' W 061°30'0 0.0
2016-Jul-12 12:31N 10°24' W 061°30'0 0.0
2016-Jul-12 11:31N 10°24' W 061°30'0 0.0
2016-Jul-12 10:32N 10°24' W 061°30'3 3.1
2016-Jul-12 09:33N 10°23' W 061°32'7 6.7
2016-Jul-12 08:33N 10°27' W 061°37'1010.2
2016-Jul-12 07:33N 10°35' W 061°45'9 9.5
2016-Jul-12 06:34N 10°43' W 061°50'8 8.3
2016-Jul-12 05:33N 10°50' W 061°55'9 9.6
2016-Jul-12 04:34N 10°54' W 062°03'9 9.3
2016-Jul-12 03:33N 10°59' W 062°11'9 9.2
2016-Jul-12 02:33N 11°03' W 062°19'  
Track history (hours):
 
Tides and Currents Weather Stations Pressure Air Temp Water Temp Dewpoint Dewpoint Depression Visibility Wind Speed Wind Dir Waves Ship Positions

Maersk Wakamatsu

Last reported at 2016-Jul-20 11:31 UTC. Time now 2016-Jul-25 02:29 UTC.
Position N 10°58' W 062°09'.

Length 172 m; draft 6.1 m.

Type: Cargo ship. MMSI: 370484000.

Date/timePositionNaut miles runAvg speedWind from/ knotsBaromVisibWave heightAir tempDewpointWater temp
2016-Jul-20 11:31N 10°58' W 062°09'1111.7
2016-Jul-20 10:33N 10°52' W 061°59'1211.7
2016-Jul-20 09:33N 10°45' W 061°49'1010.4
2016-Jul-20 08:34N 10°35' W 061°45'1110.9
2016-Jul-20 07:33N 10°28' W 061°37'8 8.0
2016-Jul-20 06:34N 10°24' W 061°30'0 0.3
2016-Jul-20 05:31N 10°24' W 061°30'0 0.0
2016-Jul-20 04:31N 10°24' W 061°30'0 0.0
2016-Jul-20 03:31N 10°24' W 061°30'0 0.0
2016-Jul-20 02:31N 10°24' W 061°30'0 0.0
2016-Jul-20 01:31N 10°24' W 061°30'0 0.0
2016-Jul-20 00:31N 10°24' W 061°30'0 0.0
2016-Jul-19 23:31N 10°24' W 061°30'0 0.0
2016-Jul-19 22:31N 10°24' W 061°30'0 0.0
2016-Jul-19 21:28N 10°24' W 061°30'0 0.0
2016-Jul-19 20:31N 10°24' W 061°30'0 0.0
2016-Jul-19 19:31N 10°24' W 061°30'0 0.0
2016-Jul-19 18:31N 10°24' W 061°30'3 3.0
2016-Jul-19 17:33N 10°23' W 061°32'9 9.3
2016-Jul-19 16:33N 10°28' W 061°40'5 4.7
2016-Jul-19 15:33N 10°31' W 061°44'0 0.1
2016-Jul-19 14:33N 10°31' W 061°44'0 0.1
2016-Jul-19 13:33N 10°31' W 061°44'0 0.0
2016-Jul-19 12:33N 10°31' W 061°44'0 0.0
2016-Jul-19 11:33N 10°31' W 061°44'0 0.0
2016-Jul-19 10:33N 10°31' W 061°44'0 0.1
2016-Jul-19 09:33N 10°31' W 061°44'0 0.0
2016-Jul-19 08:33N 10°31' W 061°44'0 0.1
2016-Jul-19 07:33N 10°31' W 061°44'10 3.4
2016-Jul-19 04:33N 10°40' W 061°48'9 9.3
2016-Jul-19 03:33N 10°47' W 061°42'1311.0
2016-Jul-19 02:23N 10°53' W 061°30'1010.8
2016-Jul-19 01:27N 10°56' W 061°21'  
2016-Jul-12 23:28N 10°56' W 061°18'1010.2
2016-Jul-12 22:27N 10°54' W 061°29'910.1
2016-Jul-12 21:33N 10°50' W 061°37'1110.8
2016-Jul-12 20:33N 10°43' W 061°46'9 9.4
2016-Jul-12 19:34N 10°35' W 061°43'1211.6
2016-Jul-12 18:34N 10°26' W 061°35'6 5.4
2016-Jul-12 17:31N 10°24' W 061°30'0 0.0
2016-Jul-12 16:31N 10°24' W 061°30'0 0.0
2016-Jul-12 15:31N 10°24' W 061°30'0 0.0
2016-Jul-12 14:31N 10°24' W 061°30'0 0.0
2016-Jul-12 13:25N 10°24' W 061°30'0 0.0
2016-Jul-12 12:31N 10°24' W 061°30'0 0.0
2016-Jul-12 11:31N 10°24' W 061°30'0 0.0
2016-Jul-12 10:32N 10°24' W 061°30'3 3.1
2016-Jul-12 09:33N 10°23' W 061°32'7 6.7
2016-Jul-12 08:33N 10°27' W 061°37'1010.2
2016-Jul-12 07:33N 10°35' W 061°45'9 9.5
2016-Jul-12 06:34N 10°43' W 061°50'8 8.3
2016-Jul-12 05:33N 10°50' W 061°55'9 9.6
2016-Jul-12 04:34N 10°54' W 062°03'9 9.3
2016-Jul-12 03:33N 10°59' W 062°11'9 9.2
2016-Jul-12 02:33N 11°03' W 062°19'  

Dump ship's entire track history